Fairgrounds, Louisiana
Current Conditions -  °F | °C
As of 11:56 PM on Friday 24 Oct 2014 (Local Time) from KSHV Reporting Station
Few Clouds Few Clouds  
Wind Chill: 60°   Ceiling: Unl
Heat Index: 60°   Visibility: 10mi
Dew Point: 55°   Wind: 3mph
Humidity: 83%   Direction: 250°WSW
Pressure: 30.13"   Gusts: NA
Location:  32.4646°N, 93.8137°W
Report Text: KSHV 250456Z 25003KT 10SM FEW280 16/13 A3013 RMK AO2 SLP199 T01560128
Loading
Personal Weather Stations






























Interactive Weather Map
Tropical Storm Tracking
New forecast layout! Learn more

10-Day Weather Forecast

Advertisements
Track Severe Weather on mobile